createdAt,value
2017-12-06T00:01:54.576Z,8.10
2017-12-06T00:04:22.166Z,12.73
2017-12-06T00:06:49.736Z,11.38
2017-12-06T00:09:18.648Z,10.73
2017-12-06T00:11:47.211Z,8.13
2017-12-06T00:14:20.421Z,8.77
2017-12-06T00:16:48.754Z,9.63
2017-12-06T00:19:16.367Z,11.52
2017-12-06T00:21:44.706Z,9.35
2017-12-06T00:24:12.276Z,7.70
2017-12-06T00:26:39.868Z,11.55
2017-12-06T00:29:08.231Z,6.18
2017-12-06T00:31:36.596Z,8.85
2017-12-06T00:34:04.167Z,10.90
2017-12-06T00:36:32.531Z,7.72
2017-12-06T00:39:00.114Z,9.10
2017-12-06T00:41:28.464Z,9.60
2017-12-06T00:43:56.026Z,9.80
2017-12-06T00:46:23.645Z,10.07
2017-12-06T00:48:51.192Z,9.80
2017-12-06T00:51:18.759Z,7.85
2017-12-06T00:53:46.341Z,9.18
2017-12-06T00:56:13.915Z,8.77
2017-12-06T00:58:44.264Z,9.15
2017-12-06T01:01:11.828Z,9.90
2017-12-06T01:03:40.178Z,10.18
2017-12-06T01:06:07.759Z,10.98
2017-12-06T01:08:35.356Z,9.18
2017-12-06T01:11:02.908Z,10.40
2017-12-06T01:13:30.476Z,14.50
2017-12-06T01:15:58.071Z,12.32
2017-12-06T01:18:25.627Z,7.25
2017-12-06T01:20:53.265Z,11.88
2017-12-06T01:23:20.827Z,8.43
2017-12-06T01:25:48.420Z,10.18
2017-12-06T01:28:16.005Z,11.52
2017-12-06T01:30:44.384Z,7.62
2017-12-06T01:33:11.925Z,14.52
2017-12-06T01:35:39.526Z,13.02
2017-12-06T01:38:07.129Z,10.68
2017-12-06T01:40:34.694Z,13.18
2017-12-06T01:43:02.302Z,9.25
2017-12-06T01:45:30.648Z,6.12
2017-12-06T01:47:58.237Z,6.18
2017-12-06T01:50:26.590Z,11.25
2017-12-06T01:52:54.183Z,10.23
2017-12-06T01:55:21.789Z,12.27
2017-12-06T01:57:49.404Z,13.60
2017-12-06T02:00:16.977Z,9.07
2017-12-06T02:02:44.564Z,12.35
2017-12-06T02:05:12.167Z,11.25
2017-12-06T02:07:40.488Z,10.65
2017-12-06T02:10:08.076Z,9.48
2017-12-06T02:12:35.669Z,15.40
2017-12-06T02:15:04.042Z,7.97
2017-12-06T02:17:32.404Z,13.68
2017-12-06T02:20:00.007Z,12.30
2017-12-06T02:22:27.628Z,7.72
2017-12-06T02:24:55.202Z,12.43
2017-12-06T02:27:23.577Z,8.60
2017-12-06T02:29:51.947Z,9.88
2017-12-06T02:32:19.553Z,9.02
2017-12-06T02:34:47.108Z,11.40
2017-12-06T02:37:14.690Z,11.12
2017-12-06T02:39:54.206Z,8.63
2017-12-06T02:42:33.619Z,7.25
2017-12-06T02:45:13.790Z,13.55
2017-12-06T02:47:41.415Z,8.55
2017-12-06T02:50:08.995Z,8.45
2017-12-06T02:52:37.530Z,11.70
2017-12-06T02:55:05.137Z,7.60
2017-12-06T02:57:33.499Z,8.63
2017-12-06T03:00:01.077Z,8.48
2017-12-06T03:02:29.421Z,8.52
2017-12-06T03:04:57.018Z,8.75
2017-12-06T03:07:25.365Z,8.82
2017-12-06T03:09:52.950Z,6.15
2017-12-06T03:12:21.263Z,7.50
2017-12-06T03:14:48.804Z,7.80
2017-12-06T03:17:16.392Z,10.10
2017-12-06T03:19:43.951Z,10.60
2017-12-06T03:22:11.539Z,9.07
2017-12-06T03:24:39.098Z,8.07
2017-12-06T03:27:06.671Z,6.32
2017-12-06T03:29:34.230Z,9.32
2017-12-06T03:32:01.803Z,8.80
2017-12-06T03:34:30.126Z,6.43
2017-12-06T03:36:57.704Z,7.72
2017-12-06T03:39:25.266Z,8.30
2017-12-06T03:41:52.813Z,10.70
2017-12-06T03:44:20.419Z,5.72
2017-12-06T03:46:48.772Z,7.12
2017-12-06T03:49:16.340Z,5.68
2017-12-06T03:51:43.909Z,5.45
2017-12-06T03:54:11.484Z,8.82
2017-12-06T03:56:39.807Z,6.30
2017-12-06T03:59:07.442Z,5.10
2017-12-06T04:01:35.052Z,8.40
2017-12-06T04:04:02.609Z,8.13
2017-12-06T04:06:30.199Z,7.47
2017-12-06T04:08:58.552Z,5.50
2017-12-06T04:11:26.191Z,5.75
2017-12-06T04:13:54.529Z,9.45
2017-12-06T04:16:22.878Z,5.00
2017-12-06T04:18:50.428Z,8.43
2017-12-06T04:21:18.014Z,4.75
2017-12-06T04:23:46.346Z,6.28
2017-12-06T04:26:13.908Z,5.60
2017-12-06T04:28:41.481Z,6.55
2017-12-06T04:31:09.029Z,6.75
2017-12-06T04:33:36.613Z,4.72
2017-12-06T04:36:04.179Z,4.90
2017-12-06T04:38:31.772Z,3.50
2017-12-06T04:40:59.351Z,4.50
2017-12-06T04:43:26.969Z,4.85
2017-12-06T04:45:55.279Z,6.15
2017-12-06T04:48:22.879Z,5.47
2017-12-06T04:50:50.445Z,4.75
2017-12-06T04:53:18.001Z,4.03
2017-12-06T04:55:45.617Z,4.30
2017-12-06T04:58:13.165Z,5.20
2017-12-06T05:00:40.741Z,4.93
2017-12-06T05:03:08.324Z,6.47
2017-12-06T05:05:35.907Z,7.40
2017-12-06T05:08:03.472Z,7.53
2017-12-06T05:10:31.062Z,5.20
2017-12-06T05:12:58.635Z,5.60
2017-12-06T05:15:26.217Z,7.07
2017-12-06T05:17:53.810Z,6.80
2017-12-06T05:20:21.371Z,4.72
2017-12-06T05:22:48.986Z,5.07
2017-12-06T05:25:16.568Z,9.20
2017-12-06T05:27:44.147Z,7.95
2017-12-06T05:30:11.750Z,5.45
2017-12-06T05:32:39.347Z,5.15
2017-12-06T05:35:06.893Z,4.60
2017-12-06T05:37:34.477Z,7.85
2017-12-06T05:40:02.034Z,9.27
2017-12-06T05:42:29.610Z,5.22
2017-12-06T05:44:57.188Z,7.37
2017-12-06T05:47:25.515Z,6.53
2017-12-06T05:49:53.087Z,11.25
2017-12-06T05:52:20.664Z,11.43
2017-12-06T05:54:48.260Z,15.20
2017-12-06T05:57:15.850Z,14.45
2017-12-06T05:59:43.450Z,13.38
2017-12-06T06:02:11.013Z,14.30
2017-12-06T06:04:38.576Z,11.38
2017-12-06T06:07:06.945Z,11.70
2017-12-06T06:09:34.508Z,14.13
2017-12-06T06:12:02.869Z,14.48
2017-12-06T06:14:30.446Z,16.37
2017-12-06T06:16:58.089Z,14.80
2017-12-06T06:19:25.648Z,16.02
2017-12-06T06:21:53.248Z,16.37
2017-12-06T06:24:21.580Z,20.73
2017-12-06T06:26:49.174Z,21.77
2017-12-06T06:29:17.519Z,19.10
2017-12-06T06:31:45.132Z,25.90
2017-12-06T06:34:12.692Z,23.65
2017-12-06T06:36:40.256Z,32.30
2017-12-06T06:39:07.859Z,22.05
2017-12-06T06:41:35.434Z,26.08
2017-12-06T06:44:03.038Z,22.30
2017-12-06T06:46:30.626Z,27.52
2017-12-06T06:48:58.208Z,31.95
2017-12-06T06:51:26.574Z,30.70
2017-12-06T06:53:54.202Z,29.90
2017-12-06T06:56:21.812Z,19.40
2017-12-06T06:58:49.492Z,25.00
2017-12-06T07:01:17.081Z,22.73
2017-12-06T07:03:44.672Z,28.90
2017-12-06T07:06:12.289Z,22.25
2017-12-06T07:08:40.633Z,24.50
2017-12-06T07:11:08.242Z,25.37
2017-12-06T07:13:35.795Z,30.23
2017-12-06T07:16:03.367Z,30.20
2017-12-06T07:18:30.943Z,28.02
2017-12-06T07:20:58.536Z,29.95
2017-12-06T07:23:26.173Z,30.60
2017-12-06T07:25:53.746Z,24.80
2017-12-06T07:28:21.361Z,28.15
2017-12-06T07:30:48.942Z,27.83
2017-12-06T07:33:16.566Z,29.92
2017-12-06T07:35:44.927Z,18.62
2017-12-06T07:38:12.522Z,19.02
2017-12-06T07:40:40.110Z,25.70
2017-12-06T07:43:07.688Z,25.12
2017-12-06T07:45:35.278Z,21.33
2017-12-06T07:48:03.643Z,22.25
2017-12-06T07:50:31.234Z,22.33
2017-12-06T07:52:58.801Z,23.77
2017-12-06T07:55:26.406Z,22.40
2017-12-06T07:57:54.748Z,26.12
2017-12-06T08:00:22.339Z,24.48
2017-12-06T08:02:49.907Z,26.75
2017-12-06T08:05:17.460Z,26.37
2017-12-06T08:07:45.041Z,22.75
2017-12-06T08:10:12.619Z,22.80
2017-12-06T08:12:40.985Z,24.50
2017-12-06T08:15:08.564Z,27.08
2017-12-06T08:17:36.918Z,25.37
2017-12-06T08:20:04.507Z,27.77
2017-12-06T08:22:32.110Z,20.23
2017-12-06T08:24:59.677Z,26.33
2017-12-06T08:27:27.237Z,26.05
2017-12-06T08:29:54.821Z,25.67
2017-12-06T08:32:22.383Z,28.15
2017-12-06T08:34:49.992Z,27.98
2017-12-06T08:37:17.559Z,23.12
2017-12-06T08:39:45.171Z,29.08
2017-12-06T08:42:13.531Z,17.92
2017-12-06T08:44:41.127Z,32.13
2017-12-06T08:47:08.718Z,25.62
2017-12-06T08:49:36.329Z,27.10
2017-12-06T08:52:04.677Z,25.17
2017-12-06T08:54:32.246Z,24.42
2017-12-06T08:56:59.851Z,28.55
2017-12-06T08:59:27.436Z,25.60
2017-12-06T09:01:55.016Z,25.37
2017-12-06T09:04:22.608Z,26.02
2017-12-06T09:06:50.203Z,23.33
2017-12-06T09:09:17.764Z,23.23
2017-12-06T09:11:45.401Z,26.05
2017-12-06T09:14:13.741Z,26.35
2017-12-06T09:16:41.336Z,27.10
2017-12-06T09:19:09.689Z,25.80
2017-12-06T09:21:37.259Z,18.67
2017-12-06T09:24:04.837Z,24.00
2017-12-06T09:26:33.165Z,18.00
2017-12-06T09:29:00.760Z,27.77
2017-12-06T09:31:29.109Z,26.58
2017-12-06T09:33:56.728Z,20.37
2017-12-06T09:36:24.303Z,28.87
2017-12-06T09:38:51.901Z,26.45
2017-12-06T09:41:19.497Z,21.87
2017-12-06T09:43:47.847Z,24.45
2017-12-06T09:46:15.459Z,24.85
2017-12-06T09:48:43.034Z,28.30
2017-12-06T09:51:10.647Z,22.25
2017-12-06T09:53:38.966Z,24.27
2017-12-06T09:56:06.557Z,23.42
2017-12-06T09:58:34.159Z,26.35
2017-12-06T10:01:01.815Z,27.23
2017-12-06T10:03:30.134Z,32.03
2017-12-06T10:05:57.710Z,20.83
2017-12-06T10:08:25.315Z,22.48
2017-12-06T10:10:52.887Z,28.00
2017-12-06T10:13:20.476Z,24.42
2017-12-06T10:15:48.061Z,22.40
2017-12-06T10:18:15.698Z,23.80
2017-12-06T10:20:43.274Z,22.23
2017-12-06T10:23:10.904Z,21.50
2017-12-06T10:25:38.513Z,22.08
2017-12-06T10:28:06.095Z,23.38
2017-12-06T10:30:34.476Z,24.58
2017-12-06T10:33:02.818Z,22.50
2017-12-06T10:35:30.423Z,23.67
2017-12-06T10:37:58.000Z,24.85
2017-12-06T10:40:25.604Z,20.27
2017-12-06T10:42:53.964Z,25.65
2017-12-06T10:45:21.614Z,18.40
2017-12-06T10:47:49.173Z,18.45
2017-12-06T10:50:16.728Z,15.75
2017-12-06T10:52:44.336Z,13.15
2017-12-06T10:55:12.680Z,19.60
2017-12-06T10:57:40.286Z,16.48
2017-12-06T11:00:08.643Z,23.20
2017-12-06T11:02:36.248Z,19.33
2017-12-06T11:05:03.823Z,20.37
2017-12-06T11:07:31.414Z,21.35
2017-12-06T11:09:59.000Z,18.48
2017-12-06T11:12:27.735Z,17.37
2017-12-06T11:14:55.291Z,24.50
2017-12-06T11:17:22.867Z,16.12
2017-12-06T11:19:50.460Z,17.30
2017-12-06T11:22:18.789Z,17.12
2017-12-06T11:24:46.371Z,20.10
2017-12-06T11:27:13.956Z,19.52
2017-12-06T11:29:42.322Z,23.75
2017-12-06T11:32:09.893Z,22.45
2017-12-06T11:34:37.505Z,19.20
2017-12-06T11:37:05.090Z,14.63
2017-12-06T11:39:32.650Z,15.70
2017-12-06T11:42:00.263Z,20.50
2017-12-06T11:44:27.822Z,17.65
2017-12-06T11:46:55.416Z,17.77
2017-12-06T11:49:22.989Z,18.58
2017-12-06T11:51:50.581Z,25.50
2017-12-06T11:54:18.943Z,18.30
2017-12-06T11:56:46.524Z,23.50
2017-12-06T11:59:14.860Z,23.25
2017-12-06T12:01:42.450Z,22.62
2017-12-06T12:04:10.015Z,20.45
2017-12-06T12:06:38.351Z,23.67
2017-12-06T12:09:05.975Z,17.60
2017-12-06T12:11:33.538Z,15.90
2017-12-06T12:14:01.158Z,18.45
2017-12-06T12:19:02.734Z,20.30
2017-12-06T12:21:30.304Z,20.77
2017-12-06T12:23:58.655Z,16.77
2017-12-06T12:26:26.209Z,24.98
2017-12-06T12:28:53.781Z,16.60
2017-12-06T12:31:21.397Z,17.80
2017-12-06T12:33:48.966Z,21.02
2017-12-06T12:36:16.540Z,23.35
2017-12-06T12:38:44.174Z,20.25
2017-12-06T12:41:11.824Z,19.20
2017-12-06T12:43:39.456Z,20.27
2017-12-06T12:46:07.074Z,20.60
2017-12-06T12:48:34.662Z,20.52
2017-12-06T12:51:02.274Z,17.20
2017-12-06T12:53:29.874Z,24.40
2017-12-06T12:55:57.475Z,21.42
2017-12-06T12:58:25.856Z,15.35
2017-12-06T13:00:54.208Z,19.87
2017-12-06T13:03:21.924Z,20.62
2017-12-06T13:05:50.221Z,22.52
2017-12-06T13:08:17.827Z,21.98
2017-12-06T13:10:46.169Z,19.17
2017-12-06T13:13:13.795Z,18.95
2017-12-06T13:15:41.395Z,18.65
2017-12-06T13:18:08.994Z,23.27
2017-12-06T13:20:37.386Z,21.25
2017-12-06T13:23:04.969Z,18.02
2017-12-06T13:25:32.632Z,20.70
2017-12-06T13:28:00.209Z,18.15
2017-12-06T13:30:27.830Z,23.85
2017-12-06T13:32:55.424Z,20.12
2017-12-06T13:35:23.063Z,17.80
2017-12-06T13:37:50.638Z,20.20
2017-12-06T13:40:18.213Z,19.17
2017-12-06T13:42:45.860Z,16.73
2017-12-06T13:45:13.434Z,23.90
2017-12-06T13:47:41.044Z,18.87
2017-12-06T13:50:09.401Z,19.10
2017-12-06T13:52:37.041Z,20.73
2017-12-06T13:55:04.674Z,17.65
2017-12-06T13:57:32.380Z,28.10
2017-12-06T13:59:59.968Z,21.23
2017-12-06T14:02:28.327Z,22.37
2017-12-06T14:04:56.712Z,20.95
2017-12-06T14:07:25.061Z,25.62
2017-12-06T14:09:52.656Z,24.15
2017-12-06T14:12:21.020Z,18.98
2017-12-06T14:14:48.637Z,17.77
2017-12-06T14:17:16.268Z,20.58
2017-12-06T14:19:43.903Z,27.92
2017-12-06T14:22:11.484Z,17.90
2017-12-06T14:24:39.848Z,24.35
2017-12-06T14:27:08.231Z,19.67
2017-12-06T14:29:36.588Z,20.83
2017-12-06T14:32:04.205Z,24.95
2017-12-06T14:34:31.810Z,22.75
2017-12-06T14:36:59.404Z,19.05
2017-12-06T14:39:27.766Z,18.67
2017-12-06T14:41:56.149Z,27.13
2017-12-06T14:44:24.522Z,18.05
2017-12-06T14:46:52.876Z,24.90
2017-12-06T14:49:20.463Z,18.85
2017-12-06T14:51:48.859Z,23.73
2017-12-06T14:54:19.869Z,21.55
2017-12-06T14:56:47.483Z,16.15
2017-12-06T14:59:15.086Z,17.92
2017-12-06T15:01:42.659Z,20.77
2017-12-06T15:04:11.059Z,18.17
2017-12-06T15:06:39.449Z,17.05
2017-12-06T15:09:07.083Z,17.83
2017-12-06T15:11:35.454Z,15.05
2017-12-06T15:14:03.855Z,22.70
2017-12-06T15:16:31.462Z,18.27
2017-12-06T15:18:59.099Z,17.30
2017-12-06T15:21:27.314Z,20.70
2017-12-06T15:23:54.987Z,15.93
2017-12-06T15:26:24.011Z,15.38
2017-12-06T15:28:51.585Z,16.15
2017-12-06T15:31:19.720Z,19.45
2017-12-06T15:33:48.526Z,15.98
2017-12-06T15:36:16.888Z,21.37
2017-12-06T15:38:44.471Z,18.52
2017-12-06T15:41:13.143Z,23.05
2017-12-06T15:43:42.866Z,20.23
2017-12-06T15:46:10.460Z,20.27
2017-12-06T15:48:38.370Z,16.65
2017-12-06T15:51:05.953Z,17.65
2017-12-06T15:53:34.202Z,19.75
2017-12-06T15:56:05.151Z,22.13
2017-12-06T15:58:32.903Z,17.77
2017-12-06T16:01:00.463Z,19.85
2017-12-06T16:03:29.826Z,21.35
2017-12-06T16:05:57.423Z,22.73
2017-12-06T16:08:25.041Z,17.95
2017-12-06T16:10:53.292Z,15.82
2017-12-06T16:13:20.920Z,20.10
2017-12-06T16:15:49.273Z,25.73
2017-12-06T16:18:16.979Z,16.60
2017-12-06T16:20:44.774Z,19.23
2017-12-06T16:23:12.370Z,19.83
2017-12-06T16:25:39.985Z,20.92
2017-12-06T16:28:07.589Z,16.83
2017-12-06T16:30:35.232Z,21.37
2017-12-06T16:33:02.841Z,23.38
2017-12-06T16:35:42.375Z,19.80
2017-12-06T16:38:09.964Z,25.75
2017-12-06T16:40:37.547Z,28.98
2017-12-06T16:43:05.502Z,22.25
2017-12-06T16:45:33.118Z,26.58
2017-12-06T16:48:00.767Z,23.48
2017-12-06T16:50:28.352Z,29.00
2017-12-06T16:52:56.763Z,23.90
2017-12-06T16:55:24.387Z,27.37
2017-12-06T16:57:52.028Z,24.40
2017-12-06T17:00:19.701Z,27.77
2017-12-06T17:02:47.298Z,22.90
2017-12-06T17:05:14.900Z,27.77
2017-12-06T17:07:42.529Z,20.92
2017-12-06T17:10:11.259Z,28.12
2017-12-06T17:12:39.667Z,20.12
2017-12-06T17:15:08.040Z,23.23
2017-12-06T17:17:35.634Z,25.65
2017-12-06T17:20:03.247Z,32.13
2017-12-06T17:22:31.615Z,28.50
2017-12-06T17:24:59.251Z,29.73
2017-12-06T17:27:26.883Z,28.42
2017-12-06T17:30:07.136Z,28.77
2017-12-06T17:32:35.508Z,22.40
2017-12-06T17:35:03.874Z,27.40
2017-12-06T17:37:31.527Z,26.48
2017-12-06T17:39:59.138Z,24.55
2017-12-06T17:42:26.799Z,31.70
2017-12-06T17:44:54.461Z,21.92
2017-12-06T17:47:22.067Z,28.75
2017-12-06T17:49:49.699Z,20.40
2017-12-06T17:52:17.313Z,25.55
2017-12-06T17:54:45.687Z,27.08
2017-12-06T17:57:14.088Z,36.97
2017-12-06T17:59:41.705Z,27.42
2017-12-06T18:02:10.362Z,25.88
2017-12-06T18:04:38.737Z,23.83
2017-12-06T18:07:06.331Z,20.12
2017-12-06T18:09:33.900Z,24.80
2017-12-06T18:12:01.508Z,26.35
2017-12-06T18:14:29.071Z,27.35
2017-12-06T18:16:56.678Z,25.25
2017-12-06T18:19:24.292Z,24.08
2017-12-06T18:21:51.918Z,26.40
2017-12-06T18:24:20.288Z,23.98
2017-12-06T18:26:47.888Z,25.48
2017-12-06T18:29:15.488Z,23.17
2017-12-06T18:31:43.093Z,24.33
2017-12-06T18:34:10.717Z,26.08
2017-12-06T18:36:38.327Z,24.30
2017-12-06T18:39:05.955Z,25.62
2017-12-06T18:41:34.306Z,26.70
2017-12-06T18:44:01.928Z,25.15
2017-12-06T18:46:29.520Z,19.70
2017-12-06T18:48:57.124Z,24.75
2017-12-06T18:51:25.507Z,20.70
2017-12-06T18:53:53.873Z,25.77
2017-12-06T18:56:22.204Z,27.05
2017-12-06T18:58:49.760Z,22.77
2017-12-06T19:01:17.366Z,29.45
2017-12-06T19:03:44.962Z,26.75
2017-12-06T19:06:12.601Z,27.42
2017-12-06T19:08:41.023Z,28.40
2017-12-06T19:11:08.610Z,25.55
2017-12-06T19:13:36.970Z,26.15
2017-12-06T19:16:04.560Z,31.87
2017-12-06T19:18:32.135Z,35.53
2017-12-06T19:21:00.714Z,32.10
2017-12-06T19:23:29.080Z,27.27
2017-12-06T19:25:56.674Z,25.45
2017-12-06T19:28:24.278Z,25.23
2017-12-06T19:30:51.853Z,23.77
2017-12-06T19:33:19.449Z,28.12
2017-12-06T19:35:47.844Z,29.08
2017-12-06T19:38:15.421Z,22.62
2017-12-06T19:40:43.006Z,32.45
2017-12-06T19:43:11.343Z,24.40
2017-12-06T19:45:38.951Z,27.60
2017-12-06T19:48:06.525Z,31.98
2017-12-06T19:50:34.125Z,29.00
2017-12-06T19:53:01.720Z,29.55
2017-12-06T19:55:29.296Z,27.98
2017-12-06T19:57:56.861Z,26.67
2017-12-06T20:00:24.839Z,21.73
2017-12-06T20:02:52.419Z,22.13
2017-12-06T20:05:20.811Z,22.20
2017-12-06T20:07:49.127Z,22.75
2017-12-06T20:10:16.690Z,24.70
2017-12-06T20:12:44.311Z,22.65
2017-12-06T20:15:11.882Z,25.33
2017-12-06T20:17:39.490Z,23.52
2017-12-06T20:20:07.234Z,22.70
2017-12-06T20:22:34.842Z,21.58
2017-12-06T20:25:02.419Z,26.48
2017-12-06T20:27:30.034Z,26.42
2017-12-06T20:29:57.617Z,24.17
2017-12-06T20:32:25.962Z,26.35
2017-12-06T20:34:53.550Z,26.40
2017-12-06T20:37:21.868Z,22.85
2017-12-06T20:39:49.463Z,21.65
2017-12-06T20:42:17.020Z,27.13
2017-12-06T20:44:44.617Z,26.10
2017-12-06T20:47:12.194Z,22.37
2017-12-06T20:49:39.786Z,22.58
2017-12-06T20:52:07.384Z,22.70
2017-12-06T20:54:35.744Z,18.95
2017-12-06T20:57:03.339Z,20.00
2017-12-06T20:59:30.910Z,22.58
2017-12-06T21:01:58.513Z,21.77
2017-12-06T21:04:26.089Z,23.48
2017-12-06T21:06:53.685Z,23.00
2017-12-06T21:09:21.283Z,28.42
2017-12-06T21:11:48.874Z,24.20
2017-12-06T21:14:16.428Z,20.00
2017-12-06T21:16:44.001Z,18.02
2017-12-06T21:19:12.372Z,24.20
2017-12-06T21:21:39.973Z,25.62
2017-12-06T21:24:07.551Z,17.37
2017-12-06T21:26:35.113Z,22.48
2017-12-06T21:29:02.701Z,20.02
2017-12-06T21:31:30.261Z,21.80
2017-12-06T21:33:57.871Z,22.52
2017-12-06T21:36:25.438Z,23.58
2017-12-06T21:38:52.987Z,23.60
2017-12-06T21:41:20.573Z,22.10
2017-12-06T21:43:48.146Z,23.05
2017-12-06T21:46:21.394Z,21.60
2017-12-06T21:48:50.290Z,17.62
2017-12-06T21:51:17.978Z,20.95
2017-12-06T21:53:45.537Z,26.12
2017-12-06T21:56:13.123Z,22.08
2017-12-06T21:58:40.725Z,20.15
2017-12-06T22:01:08.285Z,18.10
2017-12-06T22:03:35.858Z,26.90
2017-12-06T22:06:03.451Z,19.70
2017-12-06T22:08:31.028Z,22.00
2017-12-06T22:10:58.607Z,19.77
2017-12-06T22:13:26.965Z,19.20
2017-12-06T22:15:54.536Z,15.35
2017-12-06T22:18:22.120Z,33.10
2017-12-06T22:20:49.693Z,20.33
2017-12-06T22:23:17.238Z,18.40
2017-12-06T22:25:45.586Z,25.45
2017-12-06T22:28:13.166Z,32.78
2017-12-06T22:30:41.531Z,24.33
2017-12-06T22:33:09.862Z,22.80
2017-12-06T22:35:37.454Z,26.27
2017-12-06T22:38:05.038Z,28.85
2017-12-06T22:40:33.444Z,25.37
2017-12-06T22:43:01.009Z,29.37
2017-12-06T22:45:28.582Z,31.23
2017-12-06T22:47:56.175Z,27.58
2017-12-06T22:50:23.746Z,32.47
2017-12-06T22:52:52.113Z,27.08
2017-12-06T22:55:19.676Z,28.45
2017-12-06T22:57:47.295Z,23.00
2017-12-06T23:00:14.870Z,31.25
2017-12-06T23:02:42.482Z,30.40
2017-12-06T23:05:10.844Z,22.67
2017-12-06T23:07:39.175Z,24.00
2017-12-06T23:10:06.752Z,23.52
2017-12-06T23:12:34.323Z,25.17
2017-12-06T23:15:01.932Z,19.73
2017-12-06T23:17:29.496Z,31.90
2017-12-06T23:19:57.128Z,24.75
2017-12-06T23:22:25.462Z,24.85
2017-12-06T23:24:53.034Z,23.58
2017-12-06T23:27:20.619Z,22.80
2017-12-06T23:29:48.185Z,21.90
2017-12-06T23:32:16.537Z,22.42
2017-12-06T23:34:44.116Z,24.33
2017-12-06T23:37:11.733Z,19.65
2017-12-06T23:39:39.324Z,20.08
2017-12-06T23:42:06.912Z,20.60
2017-12-06T23:44:35.253Z,20.40
2017-12-06T23:47:03.637Z,22.08
2017-12-06T23:49:31.193Z,20.23
2017-12-06T23:51:58.758Z,19.92
2017-12-06T23:54:26.372Z,25.45
2017-12-06T23:56:53.947Z,24.75
2017-12-06T23:59:21.533Z,27.13
